Terminal Aerodrome Forecast
Issued by NWS

Home | Current Version | Previous Version | Text Only | Print | Product List | Glossary On
Versions: 1 2 3 4 5 6 7 8 9 10 11 12 13 14 15 16 17 18 19 20 21 22 23 24 25 26 27 28
000
FTPQ31 PGUM 212300
TAFPQ
TAF

PTKK 212324Z 2200/2224 22012KT P6SM -RA SCT014 BKN050 OVC120
      TEMPO 2200/2203 23012G20KT 3SM SHRA SCT012 BKN025
     FM220600 24012KT P6SM VCSH SCT016 BKN060 OVC120=

USA.gov is the U.S. government's official web portal to all federal, state and local government web resources and services.